sensor_id;sensor_type;location;lat;lon;timestamp;P1;durP1;ratioP1;P2;durP2;ratioP2
77864;SDS011;67061;48.524;9.040;2023-08-21T00:01:05;8.95;;;7.10;;
77864;SDS011;67061;48.524;9.040;2023-08-21T00:03:32;13.00;;;8.05;;
77864;SDS011;67061;48.524;9.040;2023-08-21T00:05:59;10.70;;;7.70;;
77864;SDS011;67061;48.524;9.040;2023-08-21T00:08:26;11.13;;;8.02;;
77864;SDS011;67061;48.524;9.040;2023-08-21T00:10:53;9.43;;;7.20;;
77864;SDS011;67061;48.524;9.040;2023-08-21T00:13:21;8.85;;;7.18;;
77864;SDS011;67061;48.524;9.040;2023-08-21T00:15:49;9.45;;;6.97;;
77864;SDS011;67061;48.524;9.040;2023-08-21T00:18:17;10.68;;;7.28;;
77864;SDS011;67061;48.524;9.040;2023-08-21T00:20:44;8.38;;;7.30;;
77864;SDS011;67061;48.524;9.040;2023-08-21T00:23:11;7.93;;;6.82;;
77864;SDS011;67061;48.524;9.040;2023-08-21T00:25:37;8.73;;;6.93;;
77864;SDS011;67061;48.524;9.040;2023-08-21T00:28:05;9.35;;;6.85;;
77864;SDS011;67061;48.524;9.040;2023-08-21T00:30:32;10.00;;;7.35;;
77864;SDS011;67061;48.524;9.040;2023-08-21T00:33:00;10.52;;;7.28;;
77864;SDS011;67061;48.524;9.040;2023-08-21T00:35:27;10.38;;;7.65;;
77864;SDS011;67061;48.524;9.040;2023-08-21T00:37:54;11.07;;;7.68;;
77864;SDS011;67061;48.524;9.040;2023-08-21T00:40:21;8.65;;;6.78;;
77864;SDS011;67061;48.524;9.040;2023-08-21T00:42:48;10.30;;;6.95;;
77864;SDS011;67061;48.524;9.040;2023-08-21T00:45:15;10.50;;;7.50;;
77864;SDS011;67061;48.524;9.040;2023-08-21T00:47:41;10.10;;;7.13;;
77864;SDS011;67061;48.524;9.040;2023-08-21T00:50:11;10.30;;;7.15;;
77864;SDS011;67061;48.524;9.040;2023-08-21T00:52:40;8.98;;;7.45;;
77864;SDS011;67061;48.524;9.040;2023-08-21T00:55:11;8.85;;;6.88;;
77864;SDS011;67061;48.524;9.040;2023-08-21T01:00:06;10.45;;;6.78;;
77864;SDS011;67061;48.524;9.040;2023-08-21T01:02:35;8.40;;;7.35;;
77864;SDS011;67061;48.524;9.040;2023-08-21T01:05:02;7.95;;;7.03;;
77864;SDS011;67061;48.524;9.040;2023-08-21T01:07:31;9.73;;;7.50;;
77864;SDS011;67061;48.524;9.040;2023-08-21T01:10:15;9.90;;;7.03;;
77864;SDS011;67061;48.524;9.040;2023-08-21T01:12:48;12.05;;;7.90;;
77864;SDS011;67061;48.524;9.040;2023-08-21T01:15:21;10.13;;;7.55;;
77864;SDS011;67061;48.524;9.040;2023-08-21T01:17:49;10.10;;;7.35;;
77864;SDS011;67061;48.524;9.040;2023-08-21T01:20:17;11.43;;;7.85;;
77864;SDS011;67061;48.524;9.040;2023-08-21T01:22:46;8.63;;;7.28;;
77864;SDS011;67061;48.524;9.040;2023-08-21T01:25:14;9.60;;;7.45;;
77864;SDS011;67061;48.524;9.040;2023-08-21T01:27:42;9.93;;;7.47;;
77864;SDS011;67061;48.524;9.040;2023-08-21T01:30:12;10.38;;;7.40;;
77864;SDS011;67061;48.524;9.040;2023-08-21T01:32:40;10.75;;;8.27;;
77864;SDS011;67061;48.524;9.040;2023-08-21T01:35:14;11.80;;;7.43;;
77864;SDS011;67061;48.524;9.040;2023-08-21T01:37:41;9.32;;;7.43;;
77864;SDS011;67061;48.524;9.040;2023-08-21T01:40:09;9.30;;;7.65;;
77864;SDS011;67061;48.524;9.040;2023-08-21T01:42:38;9.02;;;7.75;;
77864;SDS011;67061;48.524;9.040;2023-08-21T01:45:05;10.02;;;7.93;;
77864;SDS011;67061;48.524;9.040;2023-08-21T01:50:00;8.90;;;7.05;;
77864;SDS011;67061;48.524;9.040;2023-08-21T01:52:26;9.98;;;7.45;;
77864;SDS011;67061;48.524;9.040;2023-08-21T01:54:53;9.07;;;7.82;;
77864;SDS011;67061;48.524;9.040;2023-08-21T01:57:20;10.13;;;8.35;;
77864;SDS011;67061;48.524;9.040;2023-08-21T01:59:49;10.60;;;7.57;;
77864;SDS011;67061;48.524;9.040;2023-08-21T02:02:16;12.35;;;8.07;;
77864;SDS011;67061;48.524;9.040;2023-08-21T02:04:43;12.23;;;7.55;;
77864;SDS011;67061;48.524;9.040;2023-08-21T02:07:10;9.13;;;6.88;;
77864;SDS011;67061;48.524;9.040;2023-08-21T02:09:36;9.50;;;7.10;;
77864;SDS011;67061;48.524;9.040;2023-08-21T02:12:04;10.45;;;7.50;;
77864;SDS011;67061;48.524;9.040;2023-08-21T02:14:31;10.15;;;7.43;;
77864;SDS011;67061;48.524;9.040;2023-08-21T02:16:59;10.45;;;7.47;;
77864;SDS011;67061;48.524;9.040;2023-08-21T02:19:27;8.85;;;7.32;;
77864;SDS011;67061;48.524;9.040;2023-08-21T02:21:54;9.27;;;6.78;;
77864;SDS011;67061;48.524;9.040;2023-08-21T02:24:21;11.93;;;7.35;;
77864;SDS011;67061;48.524;9.040;2023-08-21T02:26:48;8.18;;;6.63;;
77864;SDS011;67061;48.524;9.040;2023-08-21T02:29:15;8.88;;;7.47;;
77864;SDS011;67061;48.524;9.040;2023-08-21T02:31:41;12.90;;;7.80;;
77864;SDS011;67061;48.524;9.040;2023-08-21T02:34:10;10.18;;;8.00;;
77864;SDS011;67061;48.524;9.040;2023-08-21T02:36:37;9.00;;;7.60;;
77864;SDS011;67061;48.524;9.040;2023-08-21T02:39:04;17.95;;;13.65;;
77864;SDS011;67061;48.524;9.040;2023-08-21T02:41:31;12.27;;;8.15;;
77864;SDS011;67061;48.524;9.040;2023-08-21T02:43:57;9.68;;;7.72;;
77864;SDS011;67061;48.524;9.040;2023-08-21T02:46:24;8.38;;;7.28;;
77864;SDS011;67061;48.524;9.040;2023-08-21T02:48:51;11.18;;;7.93;;
77864;SDS011;67061;48.524;9.040;2023-08-21T02:51:19;10.27;;;7.68;;
77864;SDS011;67061;48.524;9.040;2023-08-21T02:53:46;10.88;;;8.02;;
77864;SDS011;67061;48.524;9.040;2023-08-21T02:56:13;9.20;;;7.30;;
77864;SDS011;67061;48.524;9.040;2023-08-21T02:58:40;9.38;;;7.47;;
77864;SDS011;67061;48.524;9.040;2023-08-21T03:01:07;10.50;;;7.78;;
77864;SDS011;67061;48.524;9.040;2023-08-21T03:03:34;9.60;;;7.65;;
77864;SDS011;67061;48.524;9.040;2023-08-21T03:06:01;9.73;;;7.68;;
77864;SDS011;67061;48.524;9.040;2023-08-21T03:08:29;12.02;;;8.57;;
77864;SDS011;67061;48.524;9.040;2023-08-21T03:10:56;10.38;;;7.63;;
77864;SDS011;67061;48.524;9.040;2023-08-21T03:13:22;10.85;;;7.97;;
77864;SDS011;67061;48.524;9.040;2023-08-21T03:15:49;9.27;;;7.68;;
77864;SDS011;67061;48.524;9.040;2023-08-21T03:18:16;8.85;;;7.80;;
77864;SDS011;67061;48.524;9.040;2023-08-21T03:20:44;10.40;;;7.50;;
77864;SDS011;67061;48.524;9.040;2023-08-21T03:23:11;9.65;;;7.68;;
77864;SDS011;67061;48.524;9.040;2023-08-21T03:25:39;9.45;;;7.82;;
77864;SDS011;67061;48.524;9.040;2023-08-21T03:28:06;10.02;;;7.43;;
77864;SDS011;67061;48.524;9.040;2023-08-21T03:30:33;9.82;;;7.72;;
77864;SDS011;67061;48.524;9.040;2023-08-21T03:33:00;11.00;;;8.02;;
77864;SDS011;67061;48.524;9.040;2023-08-21T03:35:27;11.45;;;7.78;;
77864;SDS011;67061;48.524;9.040;2023-08-21T03:37:56;10.13;;;8.02;;
77864;SDS011;67061;48.524;9.040;2023-08-21T03:40:23;10.20;;;7.80;;
77864;SDS011;67061;48.524;9.040;2023-08-21T03:42:51;9.25;;;7.00;;
77864;SDS011;67061;48.524;9.040;2023-08-21T03:45:18;9.80;;;7.93;;
77864;SDS011;67061;48.524;9.040;2023-08-21T03:47:45;10.75;;;8.00;;
77864;SDS011;67061;48.524;9.040;2023-08-21T03:50:12;9.23;;;7.20;;
77864;SDS011;67061;48.524;9.040;2023-08-21T03:52:39;10.27;;;7.47;;
77864;SDS011;67061;48.524;9.040;2023-08-21T03:55:06;10.73;;;7.63;;
77864;SDS011;67061;48.524;9.040;2023-08-21T03:57:33;10.07;;;7.65;;
77864;SDS011;67061;48.524;9.040;2023-08-21T04:00:01;9.88;;;7.78;;
77864;SDS011;67061;48.524;9.040;2023-08-21T04:02:29;10.45;;;8.35;;
77864;SDS011;67061;48.524;9.040;2023-08-21T04:04:56;9.70;;;7.47;;
77864;SDS011;67061;48.524;9.040;2023-08-21T04:07:23;9.73;;;7.70;;
77864;SDS011;67061;48.524;9.040;2023-08-21T04:09:50;10.00;;;7.88;;
77864;SDS011;67061;48.524;9.040;2023-08-21T04:12:17;9.45;;;7.80;;
77864;SDS011;67061;48.524;9.040;2023-08-21T04:14:43;12.18;;;8.30;;
77864;SDS011;67061;48.524;9.040;2023-08-21T04:17:12;12.35;;;8.25;;
77864;SDS011;67061;48.524;9.040;2023-08-21T04:19:38;11.00;;;7.88;;
77864;SDS011;67061;48.524;9.040;2023-08-21T04:22:06;11.40;;;7.55;;
77864;SDS011;67061;48.524;9.040;2023-08-21T04:24:33;10.10;;;8.07;;
77864;SDS011;67061;48.524;9.040;2023-08-21T04:26:59;10.68;;;7.70;;
77864;SDS011;67061;48.524;9.040;2023-08-21T04:29:28;10.82;;;7.75;;
77864;SDS011;67061;48.524;9.040;2023-08-21T04:31:55;10.80;;;7.25;;
77864;SDS011;67061;48.524;9.040;2023-08-21T04:34:23;16.20;;;8.80;;
77864;SDS011;67061;48.524;9.040;2023-08-21T04:36:50;9.68;;;8.15;;
77864;SDS011;67061;48.524;9.040;2023-08-21T04:39:17;10.38;;;7.68;;
77864;SDS011;67061;48.524;9.040;2023-08-21T04:41:44;11.57;;;8.05;;
77864;SDS011;67061;48.524;9.040;2023-08-21T04:44:11;11.38;;;8.85;;
77864;SDS011;67061;48.524;9.040;2023-08-21T04:46:38;11.52;;;8.55;;
77864;SDS011;67061;48.524;9.040;2023-08-21T04:49:04;12.27;;;8.48;;
77864;SDS011;67061;48.524;9.040;2023-08-21T04:51:33;12.45;;;8.50;;
77864;SDS011;67061;48.524;9.040;2023-08-21T04:54:00;12.57;;;9.35;;
77864;SDS011;67061;48.524;9.040;2023-08-21T04:56:26;10.10;;;8.90;;
77864;SDS011;67061;48.524;9.040;2023-08-21T04:58:53;12.05;;;8.43;;
77864;SDS011;67061;48.524;9.040;2023-08-21T05:01:21;9.85;;;8.15;;
77864;SDS011;67061;48.524;9.040;2023-08-21T05:03:48;12.73;;;9.65;;
77864;SDS011;67061;48.524;9.040;2023-08-21T05:06:15;12.45;;;8.38;;
77864;SDS011;67061;48.524;9.040;2023-08-21T05:08:43;13.75;;;8.73;;
77864;SDS011;67061;48.524;9.040;2023-08-21T05:11:10;11.55;;;8.18;;
77864;SDS011;67061;48.524;9.040;2023-08-21T05:13:37;11.48;;;8.80;;
77864;SDS011;67061;48.524;9.040;2023-08-21T05:16:04;12.45;;;8.95;;
77864;SDS011;67061;48.524;9.040;2023-08-21T05:18:31;10.50;;;8.18;;
77864;SDS011;67061;48.524;9.040;2023-08-21T05:20:57;10.82;;;8.60;;
77864;SDS011;67061;48.524;9.040;2023-08-21T05:23:25;9.85;;;8.43;;
77864;SDS011;67061;48.524;9.040;2023-08-21T05:25:53;14.52;;;8.68;;
77864;SDS011;67061;48.524;9.040;2023-08-21T05:28:20;9.73;;;8.07;;
77864;SDS011;67061;48.524;9.040;2023-08-21T05:30:47;9.40;;;7.80;;
77864;SDS011;67061;48.524;9.040;2023-08-21T05:33:14;10.90;;;9.00;;
77864;SDS011;67061;48.524;9.040;2023-08-21T05:35:41;11.75;;;8.60;;
77864;SDS011;67061;48.524;9.040;2023-08-21T05:38:08;11.20;;;8.57;;
77864;SDS011;67061;48.524;9.040;2023-08-21T05:40:35;11.23;;;8.57;;
77864;SDS011;67061;48.524;9.040;2023-08-21T05:43:03;10.80;;;8.85;;
77864;SDS011;67061;48.524;9.040;2023-08-21T05:45:30;10.75;;;8.82;;
77864;SDS011;67061;48.524;9.040;2023-08-21T05:47:57;13.82;;;9.60;;
77864;SDS011;67061;48.524;9.040;2023-08-21T05:50:24;10.90;;;8.85;;
77864;SDS011;67061;48.524;9.040;2023-08-21T05:52:51;11.60;;;9.07;;
77864;SDS011;67061;48.524;9.040;2023-08-21T05:55:19;11.20;;;9.10;;
77864;SDS011;67061;48.524;9.040;2023-08-21T05:57:46;10.43;;;9.32;;
77864;SDS011;67061;48.524;9.040;2023-08-21T06:00:15;11.18;;;8.65;;
77864;SDS011;67061;48.524;9.040;2023-08-21T06:02:42;12.68;;;8.93;;
77864;SDS011;67061;48.524;9.040;2023-08-21T06:05:10;11.45;;;8.93;;
77864;SDS011;67061;48.524;9.040;2023-08-21T06:07:37;11.32;;;9.00;;
77864;SDS011;67061;48.524;9.040;2023-08-21T06:10:05;10.95;;;9.60;;
77864;SDS011;67061;48.524;9.040;2023-08-21T06:12:33;13.18;;;9.43;;
77864;SDS011;67061;48.524;9.040;2023-08-21T06:15:00;10.57;;;9.23;;
77864;SDS011;67061;48.524;9.040;2023-08-21T06:17:28;14.32;;;9.50;;
77864;SDS011;67061;48.524;9.040;2023-08-21T06:19:55;13.82;;;9.27;;
77864;SDS011;67061;48.524;9.040;2023-08-21T06:22:22;12.45;;;8.52;;
77864;SDS011;67061;48.524;9.040;2023-08-21T06:24:49;10.15;;;8.63;;
77864;SDS011;67061;48.524;9.040;2023-08-21T06:27:16;11.98;;;9.25;;
77864;SDS011;67061;48.524;9.040;2023-08-21T06:29:43;10.38;;;9.10;;
77864;SDS011;67061;48.524;9.040;2023-08-21T06:32:10;11.73;;;9.13;;
77864;SDS011;67061;48.524;9.040;2023-08-21T06:34:38;10.68;;;9.13;;
77864;SDS011;67061;48.524;9.040;2023-08-21T06:37:05;12.43;;;8.93;;
77864;SDS011;67061;48.524;9.040;2023-08-21T06:39:33;10.18;;;8.80;;
77864;SDS011;67061;48.524;9.040;2023-08-21T06:42:00;11.75;;;8.38;;
77864;SDS011;67061;48.524;9.040;2023-08-21T06:44:27;14.63;;;8.90;;
77864;SDS011;67061;48.524;9.040;2023-08-21T06:46:54;10.90;;;9.07;;
77864;SDS011;67061;48.524;9.040;2023-08-21T06:49:21;11.05;;;8.80;;
77864;SDS011;67061;48.524;9.040;2023-08-21T06:51:49;12.10;;;9.23;;
77864;SDS011;67061;48.524;9.040;2023-08-21T06:54:16;11.38;;;8.95;;
77864;SDS011;67061;48.524;9.040;2023-08-21T06:56:43;11.35;;;9.18;;
77864;SDS011;67061;48.524;9.040;2023-08-21T06:59:10;11.65;;;9.20;;
77864;SDS011;67061;48.524;9.040;2023-08-21T07:01:37;10.45;;;8.77;;
77864;SDS011;67061;48.524;9.040;2023-08-21T07:04:04;10.98;;;9.15;;
77864;SDS011;67061;48.524;9.040;2023-08-21T07:06:31;10.80;;;8.70;;
77864;SDS011;67061;48.524;9.040;2023-08-21T07:08:59;12.50;;;8.40;;
77864;SDS011;67061;48.524;9.040;2023-08-21T07:11:26;11.05;;;8.70;;
77864;SDS011;67061;48.524;9.040;2023-08-21T07:13:53;10.02;;;8.20;;
77864;SDS011;67061;48.524;9.040;2023-08-21T07:16:20;11.20;;;9.20;;
77864;SDS011;67061;48.524;9.040;2023-08-21T07:18:48;11.25;;;8.80;;
77864;SDS011;67061;48.524;9.040;2023-08-21T07:21:14;12.30;;;9.30;;
77864;SDS011;67061;48.524;9.040;2023-08-21T07:23:41;11.48;;;8.85;;
77864;SDS011;67061;48.524;9.040;2023-08-21T07:26:09;9.25;;;8.23;;
77864;SDS011;67061;48.524;9.040;2023-08-21T07:28:36;10.95;;;8.18;;
77864;SDS011;67061;48.524;9.040;2023-08-21T07:31:03;10.95;;;8.82;;
77864;SDS011;67061;48.524;9.040;2023-08-21T07:33:30;11.60;;;8.75;;
77864;SDS011;67061;48.524;9.040;2023-08-21T07:35:58;10.85;;;9.00;;
77864;SDS011;67061;48.524;9.040;2023-08-21T07:38:25;11.23;;;8.38;;
77864;SDS011;67061;48.524;9.040;2023-08-21T07:40:52;11.82;;;8.77;;
77864;SDS011;67061;48.524;9.040;2023-08-21T07:43:30;10.48;;;8.48;;
77864;SDS011;67061;48.524;9.040;2023-08-21T07:45:57;11.15;;;8.05;;
77864;SDS011;67061;48.524;9.040;2023-08-21T07:48:27;11.35;;;8.52;;
77864;SDS011;67061;48.524;9.040;2023-08-21T07:50:54;10.50;;;8.60;;
77864;SDS011;67061;48.524;9.040;2023-08-21T07:53:21;10.30;;;8.15;;
77864;SDS011;67061;48.524;9.040;2023-08-21T07:55:48;12.45;;;7.78;;
77864;SDS011;67061;48.524;9.040;2023-08-21T07:58:16;10.13;;;8.35;;
77864;SDS011;67061;48.524;9.040;2023-08-21T08:00:44;11.38;;;8.80;;
77864;SDS011;67061;48.524;9.040;2023-08-21T08:05:39;9.68;;;7.93;;
77864;SDS011;67061;48.524;9.040;2023-08-21T08:08:06;9.93;;;7.72;;
77864;SDS011;67061;48.524;9.040;2023-08-21T08:10:33;8.88;;;7.78;;
77864;SDS011;67061;48.524;9.040;2023-08-21T08:13:03;10.85;;;8.30;;
77864;SDS011;67061;48.524;9.040;2023-08-21T08:15:30;8.88;;;7.90;;
77864;SDS011;67061;48.524;9.040;2023-08-21T08:18:00;10.43;;;7.72;;
77864;SDS011;67061;48.524;9.040;2023-08-21T08:20:27;9.32;;;8.30;;
77864;SDS011;67061;48.524;9.040;2023-08-21T08:22:54;12.35;;;7.82;;
77864;SDS011;67061;48.524;9.040;2023-08-21T08:25:21;10.70;;;7.28;;
77864;SDS011;67061;48.524;9.040;2023-08-21T08:27:48;10.85;;;7.75;;
77864;SDS011;67061;48.524;9.040;2023-08-21T08:30:17;8.65;;;6.75;;
77864;SDS011;67061;48.524;9.040;2023-08-21T08:32:44;10.25;;;7.68;;
77864;SDS011;67061;48.524;9.040;2023-08-21T08:35:13;10.02;;;8.00;;
77864;SDS011;67061;48.524;9.040;2023-08-21T08:37:40;8.57;;;7.68;;
77864;SDS011;67061;48.524;9.040;2023-08-21T08:40:08;9.63;;;7.07;;
77864;SDS011;67061;48.524;9.040;2023-08-21T08:42:36;10.02;;;7.53;;
77864;SDS011;67061;48.524;9.040;2023-08-21T08:45:03;11.57;;;7.25;;
77864;SDS011;67061;48.524;9.040;2023-08-21T08:47:31;8.95;;;7.43;;
77864;SDS011;67061;48.524;9.040;2023-08-21T08:50:01;9.45;;;6.90;;
77864;SDS011;67061;48.524;9.040;2023-08-21T08:52:33;9.85;;;7.35;;
77864;SDS011;67061;48.524;9.040;2023-08-21T08:55:02;8.48;;;7.40;;
77864;SDS011;67061;48.524;9.040;2023-08-21T08:57:31;9.57;;;8.40;;
77864;SDS011;67061;48.524;9.040;2023-08-21T08:59:59;10.57;;;7.40;;
77864;SDS011;67061;48.524;9.040;2023-08-21T09:02:25;9.20;;;7.65;;
77864;SDS011;67061;48.524;9.040;2023-08-21T09:04:53;10.43;;;7.15;;
77864;SDS011;67061;48.524;9.040;2023-08-21T09:07:20;9.27;;;7.30;;
77864;SDS011;67061;48.524;9.040;2023-08-21T09:09:48;8.70;;;7.03;;
77864;SDS011;67061;48.524;9.040;2023-08-21T09:12:17;8.00;;;7.18;;
77864;SDS011;67061;48.524;9.040;2023-08-21T09:14:45;7.85;;;6.97;;
77864;SDS011;67061;48.524;9.040;2023-08-21T09:17:12;9.80;;;7.15;;
77864;SDS011;67061;48.524;9.040;2023-08-21T09:19:39;10.48;;;7.47;;
77864;SDS011;67061;48.524;9.040;2023-08-21T09:22:10;8.45;;;6.93;;
77864;SDS011;67061;48.524;9.040;2023-08-21T09:24:38;8.85;;;6.93;;
77864;SDS011;67061;48.524;9.040;2023-08-21T09:27:13;8.93;;;7.03;;
77864;SDS011;67061;48.524;9.040;2023-08-21T09:29:41;10.38;;;6.50;;
77864;SDS011;67061;48.524;9.040;2023-08-21T09:32:09;9.23;;;6.95;;
77864;SDS011;67061;48.524;9.040;2023-08-21T09:34:36;7.22;;;6.50;;
77864;SDS011;67061;48.524;9.040;2023-08-21T09:39:32;9.30;;;6.85;;
77864;SDS011;67061;48.524;9.040;2023-08-21T09:42:00;10.10;;;6.97;;
77864;SDS011;67061;48.524;9.040;2023-08-21T09:44:28;11.20;;;6.45;;
77864;SDS011;67061;48.524;9.040;2023-08-21T09:47:00;9.95;;;7.07;;
77864;SDS011;67061;48.524;9.040;2023-08-21T09:51:55;10.23;;;7.00;;
77864;SDS011;67061;48.524;9.040;2023-08-21T09:54:24;8.52;;;7.30;;
77864;SDS011;67061;48.524;9.040;2023-08-21T09:56:51;8.35;;;6.63;;
77864;SDS011;67061;48.524;9.040;2023-08-21T09:59:18;9.32;;;7.55;;
77864;SDS011;67061;48.524;9.040;2023-08-21T10:01:46;9.30;;;7.28;;
77864;SDS011;67061;48.524;9.040;2023-08-21T10:04:17;8.38;;;6.93;;
77864;SDS011;67061;48.524;9.040;2023-08-21T10:06:44;9.00;;;6.95;;
77864;SDS011;67061;48.524;9.040;2023-08-21T10:09:13;7.72;;;6.53;;
77864;SDS011;67061;48.524;9.040;2023-08-21T10:11:42;8.63;;;7.07;;
77864;SDS011;67061;48.524;9.040;2023-08-21T10:14:10;10.57;;;7.15;;
77864;SDS011;67061;48.524;9.040;2023-08-21T10:16:38;7.80;;;6.03;;
77864;SDS011;67061;48.524;9.040;2023-08-21T10:19:06;7.82;;;6.57;;
77864;SDS011;67061;48.524;9.040;2023-08-21T10:21:34;6.97;;;6.28;;
77864;SDS011;67061;48.524;9.040;2023-08-21T10:24:03;10.65;;;6.38;;
77864;SDS011;67061;48.524;9.040;2023-08-21T10:26:30;7.32;;;5.93;;
77864;SDS011;67061;48.524;9.040;2023-08-21T10:28:58;9.70;;;6.40;;
77864;SDS011;67061;48.524;9.040;2023-08-21T10:31:31;7.88;;;5.93;;
77864;SDS011;67061;48.524;9.040;2023-08-21T10:34:00;7.53;;;6.57;;
77864;SDS011;67061;48.524;9.040;2023-08-21T10:36:40;8.32;;;6.50;;
77864;SDS011;67061;48.524;9.040;2023-08-21T10:39:28;9.23;;;6.10;;
77864;SDS011;67061;48.524;9.040;2023-08-21T10:47:14;6.85;;;5.95;;
77864;SDS011;67061;48.524;9.040;2023-08-21T10:49:43;7.88;;;5.75;;
77864;SDS011;67061;48.524;9.040;2023-08-21T10:52:12;7.03;;;5.55;;
77864;SDS011;67061;48.524;9.040;2023-08-21T10:54:43;10.57;;;5.47;;
77864;SDS011;67061;48.524;9.040;2023-08-21T10:57:11;7.60;;;5.47;;
77864;SDS011;67061;48.524;9.040;2023-08-21T10:59:38;7.85;;;5.70;;
77864;SDS011;67061;48.524;9.040;2023-08-21T11:02:14;7.85;;;5.95;;
77864;SDS011;67061;48.524;9.040;2023-08-21T11:04:41;8.25;;;5.53;;
77864;SDS011;67061;48.524;9.040;2023-08-21T11:07:09;6.85;;;5.75;;
77864;SDS011;67061;48.524;9.040;2023-08-21T11:09:37;8.70;;;5.82;;
77864;SDS011;67061;48.524;9.040;2023-08-21T11:12:05;7.43;;;5.70;;
77864;SDS011;67061;48.524;9.040;2023-08-21T11:14:34;6.72;;;5.45;;
77864;SDS011;67061;48.524;9.040;2023-08-21T11:17:01;8.23;;;5.43;;
77864;SDS011;67061;48.524;9.040;2023-08-21T11:19:29;6.25;;;5.55;;
77864;SDS011;67061;48.524;9.040;2023-08-21T11:21:57;7.80;;;5.65;;
77864;SDS011;67061;48.524;9.040;2023-08-21T11:24:29;6.63;;;5.47;;
77864;SDS011;67061;48.524;9.040;2023-08-21T11:26:58;11.70;;;5.95;;
77864;SDS011;67061;48.524;9.040;2023-08-21T11:29:25;6.32;;;5.40;;
77864;SDS011;67061;48.524;9.040;2023-08-21T11:31:52;9.35;;;5.05;;
77864;SDS011;67061;48.524;9.040;2023-08-21T11:36:47;8.82;;;5.72;;
77864;SDS011;67061;48.524;9.040;2023-08-21T11:39:14;8.18;;;5.63;;
77864;SDS011;67061;48.524;9.040;2023-08-21T11:41:54;7.65;;;5.60;;
77864;SDS011;67061;48.524;9.040;2023-08-21T11:44:22;6.95;;;6.07;;
77864;SDS011;67061;48.524;9.040;2023-08-21T11:46:50;7.38;;;5.60;;
77864;SDS011;67061;48.524;9.040;2023-08-21T11:49:18;8.02;;;6.05;;
77864;SDS011;67061;48.524;9.040;2023-08-21T11:51:47;8.05;;;5.40;;
77864;SDS011;67061;48.524;9.040;2023-08-21T11:54:14;7.95;;;5.93;;
77864;SDS011;67061;48.524;9.040;2023-08-21T11:56:43;8.00;;;6.03;;
77864;SDS011;67061;48.524;9.040;2023-08-21T11:59:10;8.30;;;5.68;;
77864;SDS011;67061;48.524;9.040;2023-08-21T12:01:50;8.15;;;5.80;;
77864;SDS011;67061;48.524;9.040;2023-08-21T12:04:17;10.82;;;5.85;;
77864;SDS011;67061;48.524;9.040;2023-08-21T12:06:44;6.32;;;5.65;;
77864;SDS011;67061;48.524;9.040;2023-08-21T12:09:11;8.50;;;5.43;;
77864;SDS011;67061;48.524;9.040;2023-08-21T12:11:38;7.05;;;5.82;;
77864;SDS011;67061;48.524;9.040;2023-08-21T12:14:05;7.32;;;5.80;;
77864;SDS011;67061;48.524;9.040;2023-08-21T12:16:32;9.30;;;5.15;;
77864;SDS011;67061;48.524;9.040;2023-08-21T12:19:00;6.38;;;5.65;;
77864;SDS011;67061;48.524;9.040;2023-08-21T12:21:28;7.85;;;5.95;;
77864;SDS011;67061;48.524;9.040;2023-08-21T12:23:56;7.80;;;5.20;;
77864;SDS011;67061;48.524;9.040;2023-08-21T12:26:22;7.22;;;5.68;;
77864;SDS011;67061;48.524;9.040;2023-08-21T12:28:49;8.02;;;5.72;;
77864;SDS011;67061;48.524;9.040;2023-08-21T12:31:17;7.47;;;5.05;;
77864;SDS011;67061;48.524;9.040;2023-08-21T12:33:44;9.20;;;5.75;;
77864;SDS011;67061;48.524;9.040;2023-08-21T12:36:12;7.03;;;5.13;;
77864;SDS011;67061;48.524;9.040;2023-08-21T12:38:39;6.38;;;5.00;;
77864;SDS011;67061;48.524;9.040;2023-08-21T12:41:06;5.78;;;5.15;;
77864;SDS011;67061;48.524;9.040;2023-08-21T12:43:33;6.22;;;5.10;;
77864;SDS011;67061;48.524;9.040;2023-08-21T12:46:00;6.78;;;5.28;;
77864;SDS011;67061;48.524;9.040;2023-08-21T12:48:27;7.75;;;5.32;;
77864;SDS011;67061;48.524;9.040;2023-08-21T12:50:54;8.80;;;5.57;;
77864;SDS011;67061;48.524;9.040;2023-08-21T12:53:22;6.57;;;4.93;;
77864;SDS011;67061;48.524;9.040;2023-08-21T12:55:49;5.88;;;5.28;;
77864;SDS011;67061;48.524;9.040;2023-08-21T12:58:16;8.25;;;5.60;;
77864;SDS011;67061;48.524;9.040;2023-08-21T13:00:43;7.82;;;5.63;;
77864;SDS011;67061;48.524;9.040;2023-08-21T13:03:10;7.03;;;4.78;;
77864;SDS011;67061;48.524;9.040;2023-08-21T13:05:37;6.97;;;4.93;;
77864;SDS011;67061;48.524;9.040;2023-08-21T13:08:04;5.70;;;4.97;;
77864;SDS011;67061;48.524;9.040;2023-08-21T13:10:33;7.75;;;4.90;;
77864;SDS011;67061;48.524;9.040;2023-08-21T13:13:00;7.38;;;5.00;;
77864;SDS011;67061;48.524;9.040;2023-08-21T13:15:28;5.05;;;4.55;;
77864;SDS011;67061;48.524;9.040;2023-08-21T13:17:55;7.55;;;5.05;;
77864;SDS011;67061;48.524;9.040;2023-08-21T13:20:22;6.55;;;5.57;;
77864;SDS011;67061;48.524;9.040;2023-08-21T13:22:49;8.35;;;5.55;;
77864;SDS011;67061;48.524;9.040;2023-08-21T13:25:18;7.93;;;5.75;;
77864;SDS011;67061;48.524;9.040;2023-08-21T13:27:47;5.75;;;5.03;;
77864;SDS011;67061;48.524;9.040;2023-08-21T13:30:13;7.63;;;5.10;;
77864;SDS011;67061;48.524;9.040;2023-08-21T13:32:41;6.38;;;5.15;;
77864;SDS011;67061;48.524;9.040;2023-08-21T13:35:08;6.60;;;5.45;;
77864;SDS011;67061;48.524;9.040;2023-08-21T13:37:35;6.82;;;4.63;;
77864;SDS011;67061;48.524;9.040;2023-08-21T13:40:03;7.90;;;5.70;;
77864;SDS011;67061;48.524;9.040;2023-08-21T13:42:36;5.68;;;4.95;;
77864;SDS011;67061;48.524;9.040;2023-08-21T13:45:08;5.38;;;4.88;;
77864;SDS011;67061;48.524;9.040;2023-08-21T13:47:36;6.38;;;4.93;;
77864;SDS011;67061;48.524;9.040;2023-08-21T13:50:04;6.38;;;4.88;;
77864;SDS011;67061;48.524;9.040;2023-08-21T13:52:32;6.43;;;4.90;;
77864;SDS011;67061;48.524;9.040;2023-08-21T13:54:59;6.15;;;5.55;;
77864;SDS011;67061;48.524;9.040;2023-08-21T13:57:27;6.05;;;4.57;;
77864;SDS011;67061;48.524;9.040;2023-08-21T13:59:54;7.45;;;5.47;;
77864;SDS011;67061;48.524;9.040;2023-08-21T14:02:22;7.72;;;5.25;;
77864;SDS011;67061;48.524;9.040;2023-08-21T14:04:49;6.13;;;4.72;;
77864;SDS011;67061;48.524;9.040;2023-08-21T14:07:16;7.03;;;4.65;;
77864;SDS011;67061;48.524;9.040;2023-08-21T14:09:43;7.47;;;4.90;;
77864;SDS011;67061;48.524;9.040;2023-08-21T14:12:10;7.50;;;4.78;;
77864;SDS011;67061;48.524;9.040;2023-08-21T14:14:37;7.10;;;5.45;;
77864;SDS011;67061;48.524;9.040;2023-08-21T14:17:04;8.40;;;4.68;;
77864;SDS011;67061;48.524;9.040;2023-08-21T14:19:32;6.53;;;4.70;;
77864;SDS011;67061;48.524;9.040;2023-08-21T14:21:59;5.20;;;4.70;;
77864;SDS011;67061;48.524;9.040;2023-08-21T14:24:26;7.10;;;4.32;;
77864;SDS011;67061;48.524;9.040;2023-08-21T14:26:53;5.47;;;4.35;;
77864;SDS011;67061;48.524;9.040;2023-08-21T14:29:20;6.85;;;5.15;;
77864;SDS011;67061;48.524;9.040;2023-08-21T14:31:47;7.95;;;4.68;;
77864;SDS011;67061;48.524;9.040;2023-08-21T14:34:14;7.57;;;4.50;;
77864;SDS011;67061;48.524;9.040;2023-08-21T14:36:42;6.43;;;4.30;;
77864;SDS011;67061;48.524;9.040;2023-08-21T14:39:09;7.95;;;4.78;;
77864;SDS011;67061;48.524;9.040;2023-08-21T14:41:37;5.20;;;4.45;;
77864;SDS011;67061;48.524;9.040;2023-08-21T14:44:04;6.00;;;4.25;;
77864;SDS011;67061;48.524;9.040;2023-08-21T14:46:31;7.10;;;4.65;;
77864;SDS011;67061;48.524;9.040;2023-08-21T14:48:58;5.78;;;4.50;;
77864;SDS011;67061;48.524;9.040;2023-08-21T14:51:25;7.15;;;4.47;;
77864;SDS011;67061;48.524;9.040;2023-08-21T14:53:54;8.85;;;4.63;;
77864;SDS011;67061;48.524;9.040;2023-08-21T14:56:21;6.97;;;4.72;;
77864;SDS011;67061;48.524;9.040;2023-08-21T14:58:48;10.73;;;5.22;;
77864;SDS011;67061;48.524;9.040;2023-08-21T15:01:14;6.63;;;5.20;;
77864;SDS011;67061;48.524;9.040;2023-08-21T15:03:41;7.47;;;5.35;;